sensor_id;sensor_type;location;lat;lon;timestamp;P1;durP1;ratioP1;P2;durP2;ratioP2
44428;SDS011;30134;47.866;-4.222;2022-07-29T00:02:24;29.77;;;23.55;;
44428;SDS011;30134;47.866;-4.222;2022-07-29T00:04:52;34.55;;;23.92;;
44428;SDS011;30134;47.866;-4.222;2022-07-29T00:07:18;29.92;;;22.98;;
44428;SDS011;30134;47.866;-4.222;2022-07-29T00:09:44;28.60;;;21.92;;
44428;SDS011;30134;47.866;-4.222;2022-07-29T00:12:10;28.75;;;22.17;;
44428;SDS011;30134;47.866;-4.222;2022-07-29T00:14:36;31.67;;;23.10;;
44428;SDS011;30134;47.866;-4.222;2022-07-29T00:17:02;28.15;;;21.52;;
44428;SDS011;30134;47.866;-4.222;2022-07-29T00:19:28;28.45;;;20.42;;
44428;SDS011;30134;47.866;-4.222;2022-07-29T00:21:54;26.00;;;20.02;;
44428;SDS011;30134;47.866;-4.222;2022-07-29T00:24:20;26.30;;;20.63;;
44428;SDS011;30134;47.866;-4.222;2022-07-29T00:26:46;24.77;;;19.67;;
44428;SDS011;30134;47.866;-4.222;2022-07-29T00:29:12;26.98;;;20.40;;
44428;SDS011;30134;47.866;-4.222;2022-07-29T00:31:38;26.73;;;18.95;;
44428;SDS011;30134;47.866;-4.222;2022-07-29T00:34:10;25.40;;;19.40;;
44428;SDS011;30134;47.866;-4.222;2022-07-29T00:36:55;23.33;;;17.58;;
44428;SDS011;30134;47.866;-4.222;2022-07-29T00:39:24;25.80;;;18.42;;
44428;SDS011;30134;47.866;-4.222;2022-07-29T00:41:50;21.38;;;17.35;;
44428;SDS011;30134;47.866;-4.222;2022-07-29T00:44:16;23.60;;;18.63;;
44428;SDS011;30134;47.866;-4.222;2022-07-29T00:46:41;23.17;;;17.13;;
44428;SDS011;30134;47.866;-4.222;2022-07-29T00:49:07;23.63;;;17.77;;
44428;SDS011;30134;47.866;-4.222;2022-07-29T00:51:37;22.33;;;17.45;;
44428;SDS011;30134;47.866;-4.222;2022-07-29T00:54:04;21.38;;;16.35;;
44428;SDS011;30134;47.866;-4.222;2022-07-29T00:56:31;21.55;;;16.30;;
44428;SDS011;30134;47.866;-4.222;2022-07-29T00:58:58;23.13;;;16.90;;
44428;SDS011;30134;47.866;-4.222;2022-07-29T01:01:25;23.67;;;16.05;;
44428;SDS011;30134;47.866;-4.222;2022-07-29T01:03:53;19.88;;;15.18;;
44428;SDS011;30134;47.866;-4.222;2022-07-29T01:06:19;17.70;;;14.27;;
44428;SDS011;30134;47.866;-4.222;2022-07-29T01:08:46;21.65;;;15.82;;
44428;SDS011;30134;47.866;-4.222;2022-07-29T01:11:14;20.10;;;14.93;;
44428;SDS011;30134;47.866;-4.222;2022-07-29T01:13:42;19.35;;;15.13;;
44428;SDS011;30134;47.866;-4.222;2022-07-29T01:16:20;17.40;;;14.07;;
44428;SDS011;30134;47.866;-4.222;2022-07-29T01:19:00;17.67;;;14.05;;
44428;SDS011;30134;47.866;-4.222;2022-07-29T01:21:55;17.45;;;13.80;;
44428;SDS011;30134;47.866;-4.222;2022-07-29T01:24:39;19.65;;;13.32;;
44428;SDS011;30134;47.866;-4.222;2022-07-29T01:27:36;16.70;;;12.55;;
44428;SDS011;30134;47.866;-4.222;2022-07-29T01:30:17;14.90;;;11.82;;
44428;SDS011;30134;47.866;-4.222;2022-07-29T01:32:45;15.20;;;12.18;;
44428;SDS011;30134;47.866;-4.222;2022-07-29T01:35:25;15.55;;;11.88;;
44428;SDS011;30134;47.866;-4.222;2022-07-29T01:38:03;15.95;;;12.35;;
44428;SDS011;30134;47.866;-4.222;2022-07-29T01:40:49;14.60;;;11.20;;
44428;SDS011;30134;47.866;-4.222;2022-07-29T01:43:32;14.38;;;11.68;;
44428;SDS011;30134;47.866;-4.222;2022-07-29T01:46:33;14.80;;;11.43;;
44428;SDS011;30134;47.866;-4.222;2022-07-29T01:49:06;13.45;;;10.82;;
44428;SDS011;30134;47.866;-4.222;2022-07-29T01:56:55;14.38;;;10.55;;
44428;SDS011;30134;47.866;-4.222;2022-07-29T01:59:23;13.00;;;10.02;;
44428;SDS011;30134;47.866;-4.222;2022-07-29T02:01:50;14.85;;;10.95;;
44428;SDS011;30134;47.866;-4.222;2022-07-29T02:04:20;13.32;;;10.23;;
44428;SDS011;30134;47.866;-4.222;2022-07-29T02:06:47;13.65;;;9.98;;
44428;SDS011;30134;47.866;-4.222;2022-07-29T02:09:17;12.80;;;9.77;;
44428;SDS011;30134;47.866;-4.222;2022-07-29T02:11:50;12.80;;;9.57;;
44428;SDS011;30134;47.866;-4.222;2022-07-29T02:14:21;12.30;;;9.55;;
44428;SDS011;30134;47.866;-4.222;2022-07-29T02:16:49;12.20;;;9.38;;
44428;SDS011;30134;47.866;-4.222;2022-07-29T02:19:19;12.25;;;9.43;;
44428;SDS011;30134;47.866;-4.222;2022-07-29T02:21:49;11.75;;;9.07;;
44428;SDS011;30134;47.866;-4.222;2022-07-29T02:24:18;11.25;;;9.52;;
44428;SDS011;30134;47.866;-4.222;2022-07-29T02:26:45;9.88;;;8.02;;
44428;SDS011;30134;47.866;-4.222;2022-07-29T02:29:14;13.10;;;9.63;;
44428;SDS011;30134;47.866;-4.222;2022-07-29T02:31:41;12.13;;;8.32;;
44428;SDS011;30134;47.866;-4.222;2022-07-29T02:34:12;10.75;;;8.70;;
44428;SDS011;30134;47.866;-4.222;2022-07-29T02:36:45;11.65;;;8.93;;
44428;SDS011;30134;47.866;-4.222;2022-07-29T02:39:13;12.25;;;8.60;;
44428;SDS011;30134;47.866;-4.222;2022-07-29T02:41:50;10.68;;;8.23;;
44428;SDS011;30134;47.866;-4.222;2022-07-29T02:44:20;9.95;;;7.63;;
44428;SDS011;30134;47.866;-4.222;2022-07-29T02:46:50;10.25;;;7.80;;
44428;SDS011;30134;47.866;-4.222;2022-07-29T02:49:36;10.73;;;7.68;;
44428;SDS011;30134;47.866;-4.222;2022-07-29T02:55:07;9.18;;;7.20;;
44428;SDS011;30134;47.866;-4.222;2022-07-29T02:57:49;9.85;;;7.68;;
44428;SDS011;30134;47.866;-4.222;2022-07-29T03:00:29;9.60;;;7.15;;
44428;SDS011;30134;47.866;-4.222;2022-07-29T03:03:02;9.20;;;6.78;;
44428;SDS011;30134;47.866;-4.222;2022-07-29T03:05:32;7.93;;;6.75;;
44428;SDS011;30134;47.866;-4.222;2022-07-29T03:08:01;9.30;;;7.22;;
44428;SDS011;30134;47.866;-4.222;2022-07-29T03:10:31;8.75;;;6.70;;
44428;SDS011;30134;47.866;-4.222;2022-07-29T03:12:58;8.38;;;6.70;;
44428;SDS011;30134;47.866;-4.222;2022-07-29T03:15:25;10.02;;;7.28;;
44428;SDS011;30134;47.866;-4.222;2022-07-29T03:17:52;8.77;;;7.00;;
44428;SDS011;30134;47.866;-4.222;2022-07-29T03:20:18;6.95;;;6.25;;
44428;SDS011;30134;47.866;-4.222;2022-07-29T03:22:45;9.85;;;6.10;;
44428;SDS011;30134;47.866;-4.222;2022-07-29T03:25:14;7.93;;;6.25;;
44428;SDS011;30134;47.866;-4.222;2022-07-29T03:27:43;7.53;;;6.13;;
44428;SDS011;30134;47.866;-4.222;2022-07-29T03:30:10;6.90;;;5.47;;
44428;SDS011;30134;47.866;-4.222;2022-07-29T03:32:38;6.65;;;5.70;;
44428;SDS011;30134;47.866;-4.222;2022-07-29T03:35:05;8.45;;;6.07;;
44428;SDS011;30134;47.866;-4.222;2022-07-29T03:37:39;6.88;;;5.43;;
44428;SDS011;30134;47.866;-4.222;2022-07-29T03:40:07;6.88;;;5.75;;
44428;SDS011;30134;47.866;-4.222;2022-07-29T03:42:36;7.72;;;5.45;;
44428;SDS011;30134;47.866;-4.222;2022-07-29T03:45:06;8.98;;;6.10;;
44428;SDS011;30134;47.866;-4.222;2022-07-29T03:47:35;7.60;;;5.75;;
44428;SDS011;30134;47.866;-4.222;2022-07-29T03:50:08;6.20;;;5.28;;
44428;SDS011;30134;47.866;-4.222;2022-07-29T03:52:38;7.35;;;5.57;;
44428;SDS011;30134;47.866;-4.222;2022-07-29T03:55:04;7.18;;;5.13;;
44428;SDS011;30134;47.866;-4.222;2022-07-29T03:57:31;9.02;;;6.35;;
44428;SDS011;30134;47.866;-4.222;2022-07-29T03:59:59;6.55;;;5.25;;
44428;SDS011;30134;47.866;-4.222;2022-07-29T04:02:29;6.72;;;5.20;;
44428;SDS011;30134;47.866;-4.222;2022-07-29T04:04:57;6.57;;;5.00;;
44428;SDS011;30134;47.866;-4.222;2022-07-29T04:07:23;5.82;;;5.13;;
44428;SDS011;30134;47.866;-4.222;2022-07-29T04:09:50;5.60;;;4.20;;
44428;SDS011;30134;47.866;-4.222;2022-07-29T04:12:16;5.57;;;4.95;;
44428;SDS011;30134;47.866;-4.222;2022-07-29T04:14:42;6.68;;;4.88;;
44428;SDS011;30134;47.866;-4.222;2022-07-29T04:17:08;7.30;;;5.30;;
44428;SDS011;30134;47.866;-4.222;2022-07-29T04:19:34;5.43;;;4.70;;
44428;SDS011;30134;47.866;-4.222;2022-07-29T04:22:00;5.82;;;4.75;;
44428;SDS011;30134;47.866;-4.222;2022-07-29T04:24:26;6.07;;;5.10;;
44428;SDS011;30134;47.866;-4.222;2022-07-29T04:26:53;5.57;;;4.35;;
44428;SDS011;30134;47.866;-4.222;2022-07-29T04:29:19;4.82;;;4.05;;
44428;SDS011;30134;47.866;-4.222;2022-07-29T04:31:47;5.88;;;4.65;;
44428;SDS011;30134;47.866;-4.222;2022-07-29T04:34:13;4.90;;;4.05;;
44428;SDS011;30134;47.866;-4.222;2022-07-29T04:36:39;5.47;;;4.13;;
44428;SDS011;30134;47.866;-4.222;2022-07-29T04:41:37;5.78;;;4.63;;
44428;SDS011;30134;47.866;-4.222;2022-07-29T04:44:03;5.32;;;4.20;;
44428;SDS011;30134;47.866;-4.222;2022-07-29T04:46:30;5.07;;;4.13;;
44428;SDS011;30134;47.866;-4.222;2022-07-29T04:48:57;4.85;;;3.88;;
44428;SDS011;30134;47.866;-4.222;2022-07-29T04:51:23;5.60;;;3.95;;
44428;SDS011;30134;47.866;-4.222;2022-07-29T04:53:49;5.68;;;4.10;;
44428;SDS011;30134;47.866;-4.222;2022-07-29T04:56:14;6.63;;;3.95;;
44428;SDS011;30134;47.866;-4.222;2022-07-29T04:58:40;6.15;;;4.53;;
44428;SDS011;30134;47.866;-4.222;2022-07-29T05:01:06;4.20;;;3.55;;
44428;SDS011;30134;47.866;-4.222;2022-07-29T05:03:32;4.50;;;3.58;;
44428;SDS011;30134;47.866;-4.222;2022-07-29T05:05:58;4.28;;;3.50;;
44428;SDS011;30134;47.866;-4.222;2022-07-29T05:08:24;5.03;;;3.67;;
44428;SDS011;30134;47.866;-4.222;2022-07-29T05:10:50;5.50;;;3.63;;
44428;SDS011;30134;47.866;-4.222;2022-07-29T05:13:16;3.90;;;3.42;;
44428;SDS011;30134;47.866;-4.222;2022-07-29T05:15:42;4.18;;;3.38;;
44428;SDS011;30134;47.866;-4.222;2022-07-29T05:18:08;4.30;;;3.55;;
44428;SDS011;30134;47.866;-4.222;2022-07-29T05:20:34;4.05;;;3.60;;
44428;SDS011;30134;47.866;-4.222;2022-07-29T05:23:00;4.40;;;3.05;;
44428;SDS011;30134;47.866;-4.222;2022-07-29T05:25:27;4.45;;;3.50;;
44428;SDS011;30134;47.866;-4.222;2022-07-29T05:27:54;4.53;;;3.40;;
44428;SDS011;30134;47.866;-4.222;2022-07-29T05:30:21;4.28;;;3.67;;
44428;SDS011;30134;47.866;-4.222;2022-07-29T05:32:48;4.13;;;3.10;;
44428;SDS011;30134;47.866;-4.222;2022-07-29T05:35:14;4.00;;;3.10;;
44428;SDS011;30134;47.866;-4.222;2022-07-29T05:37:40;4.00;;;3.40;;
44428;SDS011;30134;47.866;-4.222;2022-07-29T05:40:12;4.45;;;3.30;;
44428;SDS011;30134;47.866;-4.222;2022-07-29T05:42:38;3.55;;;3.10;;
44428;SDS011;30134;47.866;-4.222;2022-07-29T05:45:04;3.88;;;2.95;;
44428;SDS011;30134;47.866;-4.222;2022-07-29T05:47:31;3.40;;;3.10;;
44428;SDS011;30134;47.866;-4.222;2022-07-29T05:49:57;48.97;;;33.70;;
44428;SDS011;30134;47.866;-4.222;2022-07-29T05:52:23;74.90;;;55.22;;
44428;SDS011;30134;47.866;-4.222;2022-07-29T05:54:49;79.10;;;59.33;;
44428;SDS011;30134;47.866;-4.222;2022-07-29T05:57:22;55.00;;;39.55;;
44428;SDS011;30134;47.866;-4.222;2022-07-29T05:59:49;36.08;;;27.38;;
44428;SDS011;30134;47.866;-4.222;2022-07-29T06:02:15;27.63;;;21.25;;
44428;SDS011;30134;47.866;-4.222;2022-07-29T06:04:42;25.83;;;19.13;;
44428;SDS011;30134;47.866;-4.222;2022-07-29T06:07:09;22.38;;;16.92;;
44428;SDS011;30134;47.866;-4.222;2022-07-29T06:09:38;18.70;;;14.18;;
44428;SDS011;30134;47.866;-4.222;2022-07-29T06:12:04;20.90;;;15.75;;
44428;SDS011;30134;47.866;-4.222;2022-07-29T06:14:30;19.45;;;14.52;;
44428;SDS011;30134;47.866;-4.222;2022-07-29T06:16:57;20.05;;;14.70;;
44428;SDS011;30134;47.866;-4.222;2022-07-29T06:19:23;18.20;;;14.48;;
44428;SDS011;30134;47.866;-4.222;2022-07-29T06:21:49;17.25;;;13.38;;
44428;SDS011;30134;47.866;-4.222;2022-07-29T06:24:15;17.42;;;12.73;;
44428;SDS011;30134;47.866;-4.222;2022-07-29T06:26:41;16.40;;;12.07;;
44428;SDS011;30134;47.866;-4.222;2022-07-29T06:29:08;16.80;;;11.52;;
44428;SDS011;30134;47.866;-4.222;2022-07-29T06:31:38;13.98;;;11.55;;
44428;SDS011;30134;47.866;-4.222;2022-07-29T06:34:04;15.02;;;11.10;;
44428;SDS011;30134;47.866;-4.222;2022-07-29T06:36:30;13.40;;;10.05;;
44428;SDS011;30134;47.866;-4.222;2022-07-29T06:38:59;12.25;;;9.00;;
44428;SDS011;30134;47.866;-4.222;2022-07-29T06:41:31;21.05;;;9.93;;
44428;SDS011;30134;47.866;-4.222;2022-07-29T06:44:00;12.10;;;9.15;;
44428;SDS011;30134;47.866;-4.222;2022-07-29T06:46:29;11.95;;;9.18;;
44428;SDS011;30134;47.866;-4.222;2022-07-29T06:48:55;10.45;;;7.82;;
44428;SDS011;30134;47.866;-4.222;2022-07-29T06:51:21;12.10;;;8.85;;
44428;SDS011;30134;47.866;-4.222;2022-07-29T06:53:47;9.38;;;8.23;;
44428;SDS011;30134;47.866;-4.222;2022-07-29T06:56:13;9.80;;;7.70;;
44428;SDS011;30134;47.866;-4.222;2022-07-29T06:58:39;10.07;;;7.88;;
44428;SDS011;30134;47.866;-4.222;2022-07-29T07:01:07;9.95;;;7.55;;
44428;SDS011;30134;47.866;-4.222;2022-07-29T07:03:33;9.95;;;7.63;;
44428;SDS011;30134;47.866;-4.222;2022-07-29T07:05:59;8.95;;;6.80;;
44428;SDS011;30134;47.866;-4.222;2022-07-29T07:08:26;10.48;;;6.80;;
44428;SDS011;30134;47.866;-4.222;2022-07-29T07:10:52;8.05;;;5.72;;
44428;SDS011;30134;47.866;-4.222;2022-07-29T07:13:20;7.30;;;5.38;;
44428;SDS011;30134;47.866;-4.222;2022-07-29T07:15:48;6.68;;;4.78;;
44428;SDS011;30134;47.866;-4.222;2022-07-29T07:18:16;5.85;;;4.55;;
44428;SDS011;30134;47.866;-4.222;2022-07-29T07:20:43;5.75;;;3.83;;
44428;SDS011;30134;47.866;-4.222;2022-07-29T07:23:10;7.75;;;4.38;;
44428;SDS011;30134;47.866;-4.222;2022-07-29T07:25:36;6.50;;;4.55;;
44428;SDS011;30134;47.866;-4.222;2022-07-29T07:28:02;7.47;;;4.22;;
44428;SDS011;30134;47.866;-4.222;2022-07-29T07:30:28;6.32;;;3.50;;
44428;SDS011;30134;47.866;-4.222;2022-07-29T07:32:54;8.25;;;3.28;;
44428;SDS011;30134;47.866;-4.222;2022-07-29T07:35:20;7.28;;;3.08;;
44428;SDS011;30134;47.866;-4.222;2022-07-29T07:37:47;7.57;;;2.88;;
44428;SDS011;30134;47.866;-4.222;2022-07-29T07:40:13;3.83;;;2.25;;
44428;SDS011;30134;47.866;-4.222;2022-07-29T07:42:45;64.32;;;44.17;;
44428;SDS011;30134;47.866;-4.222;2022-07-29T07:45:11;62.85;;;42.47;;
44428;SDS011;30134;47.866;-4.222;2022-07-29T07:47:40;40.97;;;28.00;;
44428;SDS011;30134;47.866;-4.222;2022-07-29T07:50:07;26.10;;;18.05;;
44428;SDS011;30134;47.866;-4.222;2022-07-29T07:52:49;19.05;;;12.90;;
44428;SDS011;30134;47.866;-4.222;2022-07-29T07:55:18;11.60;;;8.02;;
44428;SDS011;30134;47.866;-4.222;2022-07-29T07:57:45;15.05;;;6.60;;
44428;SDS011;30134;47.866;-4.222;2022-07-29T08:00:12;15.60;;;7.38;;
44428;SDS011;30134;47.866;-4.222;2022-07-29T08:02:40;8.02;;;4.75;;
44428;SDS011;30134;47.866;-4.222;2022-07-29T08:05:07;11.20;;;4.55;;
44428;SDS011;30134;47.866;-4.222;2022-07-29T08:07:34;8.40;;;3.42;;
44428;SDS011;30134;47.866;-4.222;2022-07-29T08:10:03;10.90;;;4.80;;
44428;SDS011;30134;47.866;-4.222;2022-07-29T08:12:32;9.65;;;3.97;;
44428;SDS011;30134;47.866;-4.222;2022-07-29T08:14:58;10.05;;;3.15;;
44428;SDS011;30134;47.866;-4.222;2022-07-29T08:17:24;6.40;;;2.53;;
44428;SDS011;30134;47.866;-4.222;2022-07-29T08:19:51;5.72;;;2.40;;
44428;SDS011;30134;47.866;-4.222;2022-07-29T08:22:18;13.82;;;2.08;;
44428;SDS011;30134;47.866;-4.222;2022-07-29T08:24:44;5.28;;;2.10;;
44428;SDS011;30134;47.866;-4.222;2022-07-29T08:27:17;5.05;;;1.75;;
44428;SDS011;30134;47.866;-4.222;2022-07-29T08:29:44;8.48;;;1.90;;
44428;SDS011;30134;47.866;-4.222;2022-07-29T08:32:10;4.15;;;1.80;;
44428;SDS011;30134;47.866;-4.222;2022-07-29T08:34:36;6.47;;;1.65;;
44428;SDS011;30134;47.866;-4.222;2022-07-29T08:37:02;7.43;;;1.75;;
44428;SDS011;30134;47.866;-4.222;2022-07-29T08:39:28;4.07;;;1.40;;
44428;SDS011;30134;47.866;-4.222;2022-07-29T08:41:54;12.75;;;2.13;;
44428;SDS011;30134;47.866;-4.222;2022-07-29T08:44:27;4.18;;;1.88;;
44428;SDS011;30134;47.866;-4.222;2022-07-29T08:46:54;3.75;;;2.13;;
44428;SDS011;30134;47.866;-4.222;2022-07-29T08:49:20;9.52;;;2.47;;
44428;SDS011;30134;47.866;-4.222;2022-07-29T08:51:46;5.75;;;2.33;;
44428;SDS011;30134;47.866;-4.222;2022-07-29T08:54:12;4.63;;;2.20;;
44428;SDS011;30134;47.866;-4.222;2022-07-29T08:56:50;6.82;;;2.30;;
44428;SDS011;30134;47.866;-4.222;2022-07-29T08:59:18;5.60;;;2.30;;
44428;SDS011;30134;47.866;-4.222;2022-07-29T09:01:47;7.10;;;1.95;;
44428;SDS011;30134;47.866;-4.222;2022-07-29T09:04:15;5.90;;;1.92;;
44428;SDS011;30134;47.866;-4.222;2022-07-29T09:06:43;4.55;;;1.98;;
44428;SDS011;30134;47.866;-4.222;2022-07-29T09:09:12;3.80;;;2.10;;
44428;SDS011;30134;47.866;-4.222;2022-07-29T09:11:39;3.47;;;1.80;;
44428;SDS011;30134;47.866;-4.222;2022-07-29T09:14:06;4.43;;;1.70;;
44428;SDS011;30134;47.866;-4.222;2022-07-29T09:16:50;3.83;;;1.65;;
44428;SDS011;30134;47.866;-4.222;2022-07-29T09:19:33;4.72;;;1.70;;
44428;SDS011;30134;47.866;-4.222;2022-07-29T09:22:02;7.88;;;1.75;;
44428;SDS011;30134;47.866;-4.222;2022-07-29T09:27:11;2.70;;;1.45;;
44428;SDS011;30134;47.866;-4.222;2022-07-29T09:29:46;6.68;;;1.77;;
44428;SDS011;30134;47.866;-4.222;2022-07-29T09:32:20;13.75;;;3.08;;
44428;SDS011;30134;47.866;-4.222;2022-07-29T09:34:46;3.20;;;1.42;;
44428;SDS011;30134;47.866;-4.222;2022-07-29T09:37:12;4.13;;;1.98;;
44428;SDS011;30134;47.866;-4.222;2022-07-29T09:39:52;3.55;;;1.50;;
44428;SDS011;30134;47.866;-4.222;2022-07-29T09:42:27;4.70;;;1.80;;
44428;SDS011;30134;47.866;-4.222;2022-07-29T09:45:00;3.97;;;1.50;;
44428;SDS011;30134;47.866;-4.222;2022-07-29T09:47:40;2.47;;;1.25;;
44428;SDS011;30134;47.866;-4.222;2022-07-29T09:50:12;4.05;;;1.30;;
44428;SDS011;30134;47.866;-4.222;2022-07-29T09:52:44;6.32;;;1.92;;
44428;SDS011;30134;47.866;-4.222;2022-07-29T09:55:15;3.70;;;1.52;;
44428;SDS011;30134;47.866;-4.222;2022-07-29T09:57:42;3.20;;;1.42;;
44428;SDS011;30134;47.866;-4.222;2022-07-29T10:00:14;2.85;;;1.40;;
44428;SDS011;30134;47.866;-4.222;2022-07-29T10:02:44;3.70;;;1.38;;
44428;SDS011;30134;47.866;-4.222;2022-07-29T10:05:19;2.88;;;1.63;;
44428;SDS011;30134;47.866;-4.222;2022-07-29T10:07:51;3.63;;;1.20;;
44428;SDS011;30134;47.866;-4.222;2022-07-29T10:10:28;3.63;;;1.40;;
44428;SDS011;30134;47.866;-4.222;2022-07-29T10:13:00;5.88;;;2.67;;
44428;SDS011;30134;47.866;-4.222;2022-07-29T10:15:32;25.23;;;17.42;;
44428;SDS011;30134;47.866;-4.222;2022-07-29T10:18:09;23.33;;;17.55;;
44428;SDS011;30134;47.866;-4.222;2022-07-29T10:20:40;20.25;;;15.10;;
44428;SDS011;30134;47.866;-4.222;2022-07-29T10:23:06;15.43;;;10.00;;
44428;SDS011;30134;47.866;-4.222;2022-07-29T10:25:32;14.07;;;8.35;;
44428;SDS011;30134;47.866;-4.222;2022-07-29T10:28:01;12.60;;;6.65;;
44428;SDS011;30134;47.866;-4.222;2022-07-29T10:30:27;10.57;;;5.90;;
44428;SDS011;30134;47.866;-4.222;2022-07-29T10:32:57;10.30;;;5.82;;
44428;SDS011;30134;47.866;-4.222;2022-07-29T10:38:49;9.60;;;6.05;;
44428;SDS011;30134;47.866;-4.222;2022-07-29T10:44:19;14.68;;;5.18;;
44428;SDS011;30134;47.866;-4.222;2022-07-29T10:46:56;8.30;;;3.78;;
44428;SDS011;30134;47.866;-4.222;2022-07-29T10:49:23;6.25;;;3.60;;
44428;SDS011;30134;47.866;-4.222;2022-07-29T10:54:53;8.38;;;4.18;;
44428;SDS011;30134;47.866;-4.222;2022-07-29T11:05:16;8.10;;;3.65;;
44428;SDS011;30134;47.866;-4.222;2022-07-29T11:10:37;7.72;;;4.53;;
44428;SDS011;30134;47.866;-4.222;2022-07-29T11:13:03;12.75;;;4.60;;
44428;SDS011;30134;47.866;-4.222;2022-07-29T11:15:29;8.75;;;4.47;;
44428;SDS011;30134;47.866;-4.222;2022-07-29T11:18:22;7.22;;;4.70;;
44428;SDS011;30134;47.866;-4.222;2022-07-29T11:20:49;8.25;;;4.30;;
44428;SDS011;30134;47.866;-4.222;2022-07-29T11:31:16;8.38;;;3.97;;
44428;SDS011;30134;47.866;-4.222;2022-07-29T11:34:29;5.32;;;3.70;;
44428;SDS011;30134;47.866;-4.222;2022-07-29T11:39:33;5.68;;;3.90;;
44428;SDS011;30134;47.866;-4.222;2022-07-29T11:42:43;7.47;;;3.75;;
44428;SDS011;30134;47.866;-4.222;2022-07-29T11:44:59;6.63;;;3.88;;
44428;SDS011;30134;47.866;-4.222;2022-07-29T11:50:18;5.30;;;3.08;;
44428;SDS011;30134;47.866;-4.222;2022-07-29T11:52:57;5.80;;;3.35;;
44428;SDS011;30134;47.866;-4.222;2022-07-29T11:55:24;6.45;;;3.03;;
44428;SDS011;30134;47.866;-4.222;2022-07-29T12:03:00;5.95;;;3.38;;
44428;SDS011;30134;47.866;-4.222;2022-07-29T12:08:11;5.38;;;2.65;;
44428;SDS011;30134;47.866;-4.222;2022-07-29T12:10:48;4.55;;;2.60;;
44428;SDS011;30134;47.866;-4.222;2022-07-29T12:13:16;4.22;;;2.42;;
44428;SDS011;30134;47.866;-4.222;2022-07-29T12:15:55;3.97;;;2.30;;
44428;SDS011;30134;47.866;-4.222;2022-07-29T12:18:37;3.97;;;3.00;;
44428;SDS011;30134;47.866;-4.222;2022-07-29T12:21:16;4.57;;;2.65;;
44428;SDS011;30134;47.866;-4.222;2022-07-29T12:23:52;4.78;;;2.70;;
44428;SDS011;30134;47.866;-4.222;2022-07-29T12:26:21;4.53;;;2.50;;
44428;SDS011;30134;47.866;-4.222;2022-07-29T12:28:48;5.47;;;2.65;;
44428;SDS011;30134;47.866;-4.222;2022-07-29T12:31:14;5.15;;;2.58;;
44428;SDS011;30134;47.866;-4.222;2022-07-29T12:33:41;4.72;;;3.20;;
44428;SDS011;30134;47.866;-4.222;2022-07-29T12:36:07;6.82;;;3.45;;
44428;SDS011;30134;47.866;-4.222;2022-07-29T12:38:36;5.55;;;3.03;;
44428;SDS011;30134;47.866;-4.222;2022-07-29T12:41:05;9.70;;;3.00;;
44428;SDS011;30134;47.866;-4.222;2022-07-29T12:43:31;7.45;;;2.83;;
44428;SDS011;30134;47.866;-4.222;2022-07-29T12:45:57;7.22;;;2.25;;
44428;SDS011;30134;47.866;-4.222;2022-07-29T12:48:40;5.05;;;2.80;;
44428;SDS011;30134;47.866;-4.222;2022-07-29T12:51:08;7.57;;;2.80;;
44428;SDS011;30134;47.866;-4.222;2022-07-29T12:53:36;5.68;;;2.75;;
44428;SDS011;30134;47.866;-4.222;2022-07-29T12:56:04;5.38;;;2.20;;
44428;SDS011;30134;47.866;-4.222;2022-07-29T12:58:41;3.85;;;2.10;;
44428;SDS011;30134;47.866;-4.222;2022-07-29T13:03:51;5.35;;;2.40;;
44428;SDS011;30134;47.866;-4.222;2022-07-29T13:09:07;4.63;;;2.42;;
44428;SDS011;30134;47.866;-4.222;2022-07-29T13:14:11;2.95;;;1.92;;
44428;SDS011;30134;47.866;-4.222;2022-07-29T13:19:44;5.93;;;2.50;;
44428;SDS011;30134;47.866;-4.222;2022-07-29T13:22:24;3.63;;;2.20;;
44428;SDS011;30134;47.866;-4.222;2022-07-29T13:27:17;4.93;;;2.38;;
44428;SDS011;30134;47.866;-4.222;2022-07-29T13:29:47;3.42;;;2.00;;
44428;SDS011;30134;47.866;-4.222;2022-07-29T13:32:21;4.97;;;1.88;;
44428;SDS011;30134;47.866;-4.222;2022-07-29T13:34:47;4.63;;;2.50;;
44428;SDS011;30134;47.866;-4.222;2022-07-29T13:37:14;4.63;;;2.10;;
44428;SDS011;30134;47.866;-4.222;2022-07-29T13:39:41;4.20;;;2.03;;
44428;SDS011;30134;47.866;-4.222;2022-07-29T13:42:08;4.57;;;1.80;;
44428;SDS011;30134;47.866;-4.222;2022-07-29T13:44:34;5.13;;;2.10;;
44428;SDS011;30134;47.866;-4.222;2022-07-29T13:47:01;7.05;;;1.83;;
44428;SDS011;30134;47.866;-4.222;2022-07-29T13:49:27;3.95;;;2.13;;
44428;SDS011;30134;47.866;-4.222;2022-07-29T13:51:53;3.78;;;2.00;;
44428;SDS011;30134;47.866;-4.222;2022-07-29T13:54:21;6.75;;;2.10;;
44428;SDS011;30134;47.866;-4.222;2022-07-29T13:56:49;6.93;;;2.47;;
44428;SDS011;30134;47.866;-4.222;2022-07-29T13:59:16;11.80;;;2.40;;
44428;SDS011;30134;47.866;-4.222;2022-07-29T14:01:42;7.38;;;2.60;;
44428;SDS011;30134;47.866;-4.222;2022-07-29T14:04:08;7.38;;;2.28;;
44428;SDS011;30134;47.866;-4.222;2022-07-29T14:06:35;6.75;;;2.38;;
44428;SDS011;30134;47.866;-4.222;2022-07-29T14:09:03;8.40;;;2.40;;
44428;SDS011;30134;47.866;-4.222;2022-07-29T14:11:36;3.63;;;1.98;;
44428;SDS011;30134;47.866;-4.222;2022-07-29T14:14:05;3.53;;;2.33;;
44428;SDS011;30134;47.866;-4.222;2022-07-29T14:16:32;4.10;;;1.98;;
44428;SDS011;30134;47.866;-4.222;2022-07-29T14:18:59;3.00;;;1.90;;
44428;SDS011;30134;47.866;-4.222;2022-07-29T14:21:25;3.00;;;1.70;;
44428;SDS011;30134;47.866;-4.222;2022-07-29T14:23:58;5.13;;;2.25;;
44428;SDS011;30134;47.866;-4.222;2022-07-29T14:26:23;5.43;;;1.80;;
44428;SDS011;30134;47.866;-4.222;2022-07-29T14:28:49;4.65;;;2.20;;
44428;SDS011;30134;47.866;-4.222;2022-07-29T14:31:15;7.32;;;1.95;;
44428;SDS011;30134;47.866;-4.222;2022-07-29T14:33:41;3.88;;;1.98;;
44428;SDS011;30134;47.866;-4.222;2022-07-29T14:36:08;3.45;;;1.80;;
44428;SDS011;30134;47.866;-4.222;2022-07-29T14:38:35;2.95;;;1.80;;
44428;SDS011;30134;47.866;-4.222;2022-07-29T14:41:02;4.97;;;1.90;;
44428;SDS011;30134;47.866;-4.222;2022-07-29T14:43:28;6.82;;;1.73;;
44428;SDS011;30134;47.866;-4.222;2022-07-29T14:45:55;4.18;;;1.88;;
44428;SDS011;30134;47.866;-4.222;2022-07-29T14:48:23;3.33;;;1.85;;
44428;SDS011;30134;47.866;-4.222;2022-07-29T14:50:49;3.30;;;1.60;;
44428;SDS011;30134;47.866;-4.222;2022-07-29T14:53:15;3.67;;;2.03;;
44428;SDS011;30134;47.866;-4.222;2022-07-29T14:55:41;3.88;;;1.90;;
44428;SDS011;30134;47.866;-4.222;2022-07-29T14:58:08;4.15;;;1.65;;
44428;SDS011;30134;47.866;-4.222;2022-07-29T15:00:34;5.60;;;1.85;;
44428;SDS011;30134;47.866;-4.222;2022-07-29T15:03:02;3.80;;;1.90;;
44428;SDS011;30134;47.866;-4.222;2022-07-29T15:05:31;3.47;;;1.45;;
44428;SDS011;30134;47.866;-4.222;2022-07-29T15:07:58;5.22;;;1.60;;
44428;SDS011;30134;47.866;-4.222;2022-07-29T15:10:25;6.35;;;1.73;;
44428;SDS011;30134;47.866;-4.222;2022-07-29T15:12:52;2.72;;;1.55;;
44428;SDS011;30134;47.866;-4.222;2022-07-29T15:15:19;3.03;;;1.40;;
44428;SDS011;30134;47.866;-4.222;2022-07-29T15:17:49;2.83;;;1.58;;
44428;SDS011;30134;47.866;-4.222;2022-07-29T15:20:15;2.47;;;1.70;;
44428;SDS011;30134;47.866;-4.222;2022-07-29T15:22:44;3.00;;;1.40;;
44428;SDS011;30134;47.866;-4.222;2022-07-29T15:25:16;3.00;;;1.40;;
44428;SDS011;30134;47.866;-4.222;2022-07-29T15:27:42;3.85;;;1.70;;
44428;SDS011;30134;47.866;-4.222;2022-07-29T15:30:08;3.45;;;1.70;;
44428;SDS011;30134;47.866;-4.222;2022-07-29T15:32:35;4.00;;;1.73;;
44428;SDS011;30134;47.866;-4.222;2022-07-29T15:35:01;4.88;;;1.70;;
44428;SDS011;30134;47.866;-4.222;2022-07-29T15:37:28;4.97;;;1.73;;
44428;SDS011;30134;47.866;-4.222;2022-07-29T15:39:54;4.03;;;1.60;;
44428;SDS011;30134;47.866;-4.222;2022-07-29T15:42:20;2.75;;;1.23;;
44428;SDS011;30134;47.866;-4.222;2022-07-29T15:44:46;4.78;;;1.50;;
44428;SDS011;30134;47.866;-4.222;2022-07-29T15:47:11;2.58;;;1.50;;
44428;SDS011;30134;47.866;-4.222;2022-07-29T15:49:38;3.05;;;1.50;;